Time;durP1;ratioP1;P1;durP2;ratioP2;P2;SDS_P1;SDS_P2;PMS_P1;PMS_P2;Temp;Humidity;BMP_temperature;BMP_pressure;BME280_temperature;BME280_humidity;BME280_pressure;Samples;Min_cycle;Max_cycle;Signal;HPM_P1;HPM_P2
2023/03/26 00:00:02;;;;;;;13.13;8.35;;;;;;;11.79;100.00;100723.78;2069764;28;20045;-70
2023/03/26 00:01:35;;;;;;;14.68;10.38;;;;;;;11.78;100.00;100727.28;2086612;28;20064;-70
2023/03/26 00:02:59;;;;;;;22.45;13.10;;;;;;;11.77;100.00;100722.88;2074351;28;20042;-70
2023/03/26 00:04:24;;;;;;;25.58;15.48;;;;;;;11.77;100.00;100732.56;2075984;28;20133;-70
2023/03/26 00:05:46;;;;;;;16.10;10.27;;;;;;;11.70;100.00;100731.56;2076915;28;20076;-70
2023/03/26 00:07:09;;;;;;;11.00;6.70;;;;;;;11.66;100.00;100734.19;2086264;28;20128;-70
2023/03/26 00:08:30;;;;;;;9.88;5.85;;;;;;;11.64;100.00;100730.63;2080727;28;20431;-70
2023/03/26 00:09:53;;;;;;;10.02;6.38;;;;;;;11.59;100.00;100728.81;2077000;28;20069;-70
2023/03/26 00:11:16;;;;;;;6.10;4.07;;;;;;;11.61;100.00;100727.97;2072795;28;20399;-70
2023/03/26 00:12:39;;;;;;;6.85;4.38;;;;;;;11.65;100.00;100725.34;2085902;28;20048;-72
2023/03/26 00:14:01;;;;;;;6.65;4.55;;;;;;;11.66;100.00;100723.59;2080356;28;20052;-72
2023/03/26 00:15:23;;;;;;;7.55;4.80;;;;;;;11.67;100.00;100734.19;2075756;28;20076;-72
2023/03/26 00:16:48;;;;;;;8.02;5.35;;;;;;;11.64;100.00;100727.97;2075474;28;20588;-72
2023/03/26 00:18:09;;;;;;;10.55;7.05;;;;;;;11.60;100.00;100729.72;2099199;28;20588;-72
2023/03/26 00:19:32;;;;;;;9.55;6.68;;;;;;;11.51;100.00;100735.78;2085461;28;20141;-72
2023/03/26 00:20:54;;;;;;;8.20;6.65;;;;;;;11.43;100.00;100741.84;2094285;28;20052;-73
2023/03/26 00:22:16;;;;;;;10.75;6.97;;;;;;;11.37;100.00;100740.00;2073373;28;20037;-73
2023/03/26 00:23:38;;;;;;;8.93;6.85;;;;;;;11.32;100.00;100732.91;2075823;28;20053;-73
2023/03/26 00:25:04;;;;;;;6.57;5.25;;;;;;;11.34;100.00;100737.34;2076952;28;20048;-72
2023/03/26 00:26:29;;;;;;;7.93;5.18;;;;;;;11.42;100.00;100734.81;2086608;28;20069;-73
2023/03/26 00:27:51;;;;;;;8.10;5.72;;;;;;;11.51;100.00;100734.91;2079587;28;20049;-72
2023/03/26 00:29:14;;;;;;;9.60;6.32;;;;;;;11.56;100.00;100731.44;2069886;28;20054;-72
2023/03/26 00:30:35;;;;;;;8.77;5.97;;;;;;;11.62;100.00;100727.09;2077258;28;20038;-72
2023/03/26 00:31:57;;;;;;;9.65;6.40;;;;;;;11.68;100.00;100727.16;2078143;28;20075;-72
2023/03/26 00:33:19;;;;;;;7.90;5.32;;;;;;;11.75;100.00;100731.69;2077097;28;20044;-73
2023/03/26 00:34:44;;;;;;;11.10;7.20;;;;;;;11.75;100.00;100737.81;2074924;28;20076;-72
2023/03/26 00:36:09;;;;;;;11.43;8.15;;;;;;;11.74;100.00;100730.78;2084580;28;20045;-70
2023/03/26 00:37:32;;;;;;;11.70;8.68;;;;;;;11.74;100.00;100728.16;2072292;28;20150;-71
2023/03/26 00:38:54;;;;;;;12.25;8.93;;;;;;;11.72;100.00;100732.47;2083689;28;20049;-70
2023/03/26 00:40:17;;;;;;;8.20;5.90;;;;;;;11.69;100.00;100720.97;2072400;28;20223;-71
2023/03/26 00:41:43;;;;;;;10.40;6.57;;;;;;;11.69;100.00;100720.97;2066285;28;20050;-70
2023/03/26 00:43:18;;;;;;;7.30;5.05;;;;;;;11.68;100.00;100722.75;2059930;28;20372;-70
2023/03/26 00:44:40;;;;;;;9.05;6.03;;;;;;;11.68;100.00;100713.94;2070283;28;20075;-70
2023/03/26 00:46:02;;;;;;;13.38;6.15;;;;;;;11.67;100.00;100718.34;2064286;28;20050;-70
2023/03/26 00:47:24;;;;;;;7.10;5.10;;;;;;;11.67;100.00;100713.06;2067134;28;20050;-69
2023/03/26 00:48:46;;;;;;;9.20;6.93;;;;;;;11.70;100.00;100714.81;2077758;28;20061;-70
2023/03/26 00:50:14;;;;;;;8.27;6.50;;;;;;;11.67;100.00;100706.88;2079319;28;20041;-70
2023/03/26 00:51:37;;;;;;;8.18;6.10;;;;;;;11.64;100.00;100713.00;2062404;28;20125;-70
2023/03/26 00:52:59;;;;;;;9.52;6.60;;;;;;;11.66;100.00;100710.38;2069601;28;20049;-70
2023/03/26 00:54:21;;;;;;;9.35;6.63;;;;;;;11.63;100.00;100718.25;2069355;28;20132;-70
2023/03/26 00:55:43;;;;;;;9.88;6.93;;;;;;;11.63;100.00;100708.59;2076794;28;20413;-70
2023/03/26 00:57:09;;;;;;;11.02;7.43;;;;;;;11.64;100.00;100705.06;2077674;28;20382;-70
2023/03/26 00:58:32;;;;;;;8.52;6.53;;;;;;;11.67;100.00;100710.41;2077750;28;20049;-70
2023/03/26 00:59:54;;;;;;;7.47;5.40;;;;;;;11.70;100.00;100704.25;2077617;28;20045;-70
2023/03/26 01:01:19;;;;;;;10.10;5.97;;;;;;;11.70;100.00;100704.25;2077055;28;20684;-70
2023/03/26 01:02:43;;;;;;;8.70;6.00;;;;;;;11.67;100.00;100704.22;2081108;28;20548;-70
2023/03/26 01:04:26;;;;;;;8.90;5.80;;;;;;;11.65;100.00;100712.13;2079930;28;20049;-71
2023/03/26 01:05:51;;;;;;;8.23;5.82;;;;;;;11.64;100.00;100710.38;2080556;28;20510;-70
2023/03/26 01:07:20;;;;;;;7.70;5.85;;;;;;;11.63;100.00;100705.03;2078194;28;20504;-70
2023/03/26 01:08:44;;;;;;;7.57;5.05;;;;;;;11.62;100.00;100704.16;2078472;28;20111;-70
2023/03/26 01:10:07;;;;;;;9.77;5.63;;;;;;;11.62;100.00;100703.31;2071550;28;20141;-70
2023/03/26 01:11:30;;;;;;;8.05;5.38;;;;;;;11.60;100.00;100703.28;2061796;28;20469;-70
2023/03/26 01:12:54;;;;;;;8.02;5.45;;;;;;;11.59;100.00;100699.75;2074300;28;20279;-70
2023/03/26 01:14:20;;;;;;;9.05;5.68;;;;;;;11.57;100.00;100706.75;2077710;28;20155;-70
2023/03/26 01:15:41;;;;;;;9.32;6.38;;;;;;;11.56;100.00;100706.75;2068642;28;20072;-70
2023/03/26 01:17:07;;;;;;;9.10;6.75;;;;;;;11.54;100.00;100708.50;2090716;28;20110;-70
2023/03/26 01:18:32;;;;;;;8.93;5.80;;;;;;;11.51;100.00;100709.34;2082226;28;20505;-72
2023/03/26 01:20:11;;;;;;;8.13;5.70;;;;;;;11.49;100.00;100708.44;2077221;28;20046;-72
2023/03/26 01:21:34;;;;;;;7.90;5.60;;;;;;;11.46;100.00;100705.78;2079085;28;20056;-70
2023/03/26 01:23:03;;;;;;;8.65;5.03;;;;;;;11.47;100.00;100709.31;2069343;28;20054;-70
2023/03/26 01:24:29;;;;;;;8.10;5.10;;;;;;;11.46;100.00;100704.88;2074466;28;20053;-73
2023/03/26 01:25:58;;;;;;;7.90;5.47;;;;;;;11.48;100.00;100703.16;2076665;28;20283;-72
2023/03/26 01:27:32;;;;;;;9.13;5.28;;;;;;;11.47;100.00;100712.84;2070221;28;20155;-72
2023/03/26 01:28:56;;;;;;;7.68;5.13;;;;;;;11.47;100.00;100711.94;2086571;28;20049;-72
2023/03/26 01:30:25;;;;;;;8.15;5.05;;;;;;;11.49;100.00;100712.81;2079399;28;20144;-72
2023/03/26 01:31:55;;;;;;;7.47;4.93;;;;;;;11.49;100.00;100711.06;2076156;28;20052;-72
2023/03/26 01:33:28;;;;;;;7.43;5.10;;;;;;;11.49;100.00;100710.19;2072764;28;20057;-72
2023/03/26 01:35:11;;;;;;;7.28;4.90;;;;;;;11.49;100.00;100705.78;2078758;28;20422;-72
2023/03/26 01:36:41;;;;;;;8.57;5.50;;;;;;;11.50;100.00;100699.63;2088444;28;20080;-72
2023/03/26 01:38:14;;;;;;;8.35;5.20;;;;;;;11.52;100.00;100699.66;2086388;28;20412;-72
2023/03/26 01:39:52;;;;;;;7.60;5.13;;;;;;;11.53;100.00;100685.59;2086800;28;20135;-72
2023/03/26 01:41:20;;;;;;;6.50;4.82;;;;;;;11.52;100.00;100689.09;2066936;28;20265;-73
2023/03/26 01:42:46;;;;;;;9.30;5.80;;;;;;;11.51;100.00;100689.94;2081858;28;20055;-72
2023/03/26 01:44:17;;;;;;;8.73;6.35;;;;;;;11.46;100.00;100695.19;2086175;28;20086;-72
2023/03/26 01:45:42;;;;;;;7.47;4.95;;;;;;;11.28;100.00;100689.72;2080030;28;20045;-72
2023/03/26 01:47:06;;;;;;;8.38;4.78;;;;;;;11.12;100.00;100696.56;2078051;28;20050;-73
2023/03/26 01:48:31;;;;;;;7.80;5.20;;;;;;;11.07;100.00;100693.00;2060742;28;20133;-72
2023/03/26 01:49:52;;;;;;;7.60;4.72;;;;;;;11.02;100.00;100701.72;2065376;28;20041;-72
2023/03/26 01:51:27;;;;;;;8.30;4.90;;;;;;;10.95;100.00;100700.75;2068602;28;20105;-72
2023/03/26 01:52:48;;;;;;;8.70;5.35;;;;;;;10.91;100.00;100698.94;2077966;28;20049;-72
2023/03/26 01:54:13;;;;;;;;;;;;;;;10.94;100.00;100708.66;2070153;28;20506;-71
2023/03/26 01:55:48;;;;;;;9.90;5.85;;;;;;;11.06;100.00;100711.44;2100310;28;19920;-72
2023/03/26 01:57:17;;;;;;;7.07;5.30;;;;;;;11.14;100.00;100705.41;2072598;28;20662;-72
2023/03/26 01:58:53;;;;;;;8.07;5.43;;;;;;;11.16;100.00;100708.94;2071568;28;20058;-72
2023/03/26 02:00:24;;;;;;;8.02;5.50;;;;;;;11.17;100.00;100712.47;2063462;28;20046;-72
2023/03/26 02:01:56;;;;;;;7.75;4.97;;;;;;;11.18;100.00;100715.13;2074404;28;20069;-72
2023/03/26 02:03:26;;;;;;;10.55;5.18;;;;;;;11.21;100.00;100718.69;2078529;28;20048;-72
2023/03/26 02:04:53;;;;;;;6.53;4.82;;;;;;;11.24;100.00;100710.78;2084151;28;20048;-72
2023/03/26 02:06:22;;;;;;;6.70;3.92;;;;;;;11.26;100.00;100719.63;2077778;28;20038;-72
2023/03/26 02:07:52;;;;;;;9.23;5.25;;;;;;;11.29;100.00;100711.75;2080022;28;20037;-72
2023/03/26 02:09:21;;;;;;;10.73;5.65;;;;;;;11.30;100.00;100710.84;2078029;28;20511;-72
2023/03/26 02:10:48;;;;;;;6.82;4.80;;;;;;;11.32;100.00;100714.41;2077659;28;20057;-72
2023/03/26 02:12:11;;;;;;;7.60;5.28;;;;;;;11.32;100.00;100728.50;2069715;28;20046;-72
2023/03/26 02:13:34;;;;;;;7.57;5.20;;;;;;;11.34;100.00;100725.91;2066460;28;20053;-73
2023/03/26 02:14:59;;;;;;;10.80;7.78;;;;;;;11.34;100.00;100716.22;2081275;28;20076;-71
2023/03/26 02:16:20;;;;;;;9.50;6.88;;;;;;;11.34;100.00;100725.91;2077742;28;20054;-70
2023/03/26 02:17:43;;;;;;;8.10;5.68;;;;;;;11.31;100.00;100729.38;2074408;28;20099;-70
2023/03/26 02:19:04;;;;;;;8.25;5.57;;;;;;;11.29;100.00;100728.47;2074430;28;20042;-70
2023/03/26 02:20:28;;;;;;;8.32;5.68;;;;;;;11.29;100.00;100732.88;2068729;28;20050;-70
2023/03/26 02:21:50;;;;;;;7.90;5.53;;;;;;;11.30;100.00;100738.16;2074502;28;20493;-70
2023/03/26 02:23:13;;;;;;;7.70;5.35;;;;;;;11.31;100.00;100733.78;2077286;28;20056;-71
2023/03/26 02:24:36;;;;;;;8.70;5.82;;;;;;;11.31;100.00;100731.13;2068518;28;20057;-70
2023/03/26 02:25:59;;;;;;;7.05;5.00;;;;;;;11.30;100.00;100737.28;2066671;28;20077;-73
2023/03/26 02:27:22;;;;;;;8.93;5.55;;;;;;;11.29;100.00;100727.59;2077041;28;20140;-73
2023/03/26 02:28:43;;;;;;;8.60;5.18;;;;;;;11.28;100.00;100729.34;2063687;28;20793;-73
2023/03/26 02:30:08;;;;;;;;;;;;;;;11.22;100.00;100725.75;2066926;28;20573;-72
2023/03/26 02:31:29;;;;;;;10.98;8.73;;;;;;;11.21;100.00;100726.63;2061191;28;20318;-73
2023/03/26 02:32:52;;;;;;;6.22;4.97;;;;;;;11.17;100.00;100715.09;2066383;28;20049;-72
2023/03/26 02:34:16;;;;;;;8.13;6.03;;;;;;;11.13;100.00;100706.28;2061329;28;20039;-72
2023/03/26 02:35:45;;;;;;;8.90;5.70;;;;;;;11.14;100.00;100708.03;2070164;28;20066;-73
2023/03/26 02:37:08;;;;;;;8.48;5.82;;;;;;;11.16;100.00;100716.84;2068484;28;20390;-72
2023/03/26 02:38:33;;;;;;;9.40;7.55;;;;;;;11.17;100.00;100716.00;2085492;28;20045;-72
2023/03/26 02:39:57;;;;;;;12.52;9.43;;;;;;;11.16;100.00;100714.22;2066966;28;20069;-72
2023/03/26 02:41:26;;;;;;;9.98;7.40;;;;;;;11.06;100.00;100714.97;2068513;28;20686;-72
2023/03/26 02:42:54;;;;;;;11.55;8.88;;;;;;;10.95;100.00;100705.16;2071323;28;20055;-73
2023/03/26 02:44:15;;;;;;;7.80;5.63;;;;;;;10.93;100.00;100707.78;2073907;28;20042;-72
2023/03/26 02:45:55;;;;;;;7.28;5.72;;;;;;;10.97;100.00;100699.00;2071468;28;20062;-72
2023/03/26 02:47:37;;;;;;;7.88;5.45;;;;;;;11.02;100.00;100692.06;2079720;28;20505;-72
2023/03/26 02:49:18;;;;;;;7.47;5.10;;;;;;;11.04;100.00;100697.31;2071533;28;20502;-72
2023/03/26 02:50:39;;;;;;;8.13;5.25;;;;;;;11.07;100.00;100689.47;2068805;28;20157;-72
2023/03/26 02:52:21;;;;;;;7.35;5.55;;;;;;;11.05;100.00;100691.19;2058374;28;20491;-73
2023/03/26 02:53:48;;;;;;;8.27;5.35;;;;;;;10.99;100.00;100686.72;2070811;28;20050;-72
2023/03/26 02:55:32;;;;;;;7.63;6.60;;;;;;;10.97;100.00;100687.56;2064705;28;20053;-72
2023/03/26 02:56:59;;;;;;;7.95;5.50;;;;;;;11.04;100.00;100684.13;2071756;28;20065;-72
2023/03/26 02:58:48;;;;;;;8.57;4.88;;;;;;;11.14;100.00;100680.75;2081389;28;20049;-72
2023/03/26 03:00:12;;;;;;;8.02;5.88;;;;;;;11.18;100.00;100685.19;2065390;28;20088;-73
2023/03/26 03:01:54;;;;;;;8.65;5.88;;;;;;;11.19;100.00;100679.91;2080190;28;20088;-72
2023/03/26 03:03:16;;;;;;;7.55;5.75;;;;;;;11.22;100.00;100678.19;2078534;28;20506;-72
2023/03/26 03:05:00;;;;;;;7.18;5.55;;;;;;;11.22;100.00;100673.81;2075333;28;20478;-72
2023/03/26 03:06:29;;;;;;;7.35;5.25;;;;;;;11.27;100.00;100672.09;2081335;28;20818;-72
2023/03/26 03:07:57;;;;;;;8.30;5.18;;;;;;;11.30;100.00;100665.94;2083780;28;20135;-72
2023/03/26 03:09:22;;;;;;;7.20;5.22;;;;;;;11.29;100.00;100664.19;2071605;28;20053;-72
2023/03/26 03:11:08;;;;;;;7.05;4.40;;;;;;;11.30;100.00;100653.59;2080889;28;20524;-72
2023/03/26 03:12:50;;;;;;;7.57;5.50;;;;;;;11.30;100.00;100648.31;2072915;28;20518;-72
2023/03/26 03:14:12;;;;;;;6.30;4.53;;;;;;;11.33;100.00;100644.84;2075636;28;20489;-72
2023/03/26 03:15:33;;;;;;;6.68;5.07;;;;;;;11.34;100.00;100646.63;2075494;28;20102;-72
2023/03/26 03:16:57;;;;;;;8.02;4.93;;;;;;;11.34;100.00;100652.78;2084404;28;20047;-72
2023/03/26 03:18:18;;;;;;;6.65;4.28;;;;;;;11.31;100.00;100644.81;2070208;28;20097;-73
2023/03/26 03:19:41;;;;;;;9.77;5.65;;;;;;;11.25;100.00;100647.38;2082016;28;20056;-73
2023/03/26 03:21:04;;;;;;;8.90;6.70;;;;;;;11.21;100.00;100637.66;2078562;28;20052;-73
2023/03/26 03:22:26;;;;;;;10.98;6.88;;;;;;;11.14;100.00;100636.72;2092669;28;20048;-73
2023/03/26 03:23:48;;;;;;;10.18;6.68;;;;;;;11.07;100.00;100637.50;2078231;28;20525;-72
2023/03/26 03:25:13;;;;;;;10.05;7.00;;;;;;;11.04;100.00;100637.47;2074955;28;20140;-73
2023/03/26 03:26:35;;;;;;;11.88;7.30;;;;;;;11.04;100.00;100632.19;2070617;28;20054;-73
2023/03/26 03:28:19;;;;;;;13.13;8.73;;;;;;;11.07;100.00;100620.78;2095858;28;20512;-72
2023/03/26 03:29:40;;;;;;;8.20;5.57;;;;;;;11.12;100.00;100621.72;2075399;28;20050;-72
2023/03/26 03:31:25;;;;;;;7.63;5.27;;;;;;;11.20;100.00;100622.69;2087841;28;20444;-72
2023/03/26 03:32:49;;;;;;;8.63;5.53;;;;;;;11.25;100.00;100622.72;2073587;28;20415;-72
2023/03/26 03:34:16;;;;;;;9.75;6.07;;;;;;;11.30;100.00;100624.53;2077195;28;20143;-72
2023/03/26 03:35:44;;;;;;;11.43;6.65;;;;;;;11.32;100.00;100624.56;2079058;28;20076;-72
2023/03/26 03:37:07;;;;;;;7.28;4.45;;;;;;;11.38;100.00;100621.97;2069368;28;20041;-73
2023/03/26 03:38:41;;;;;;;6.13;4.57;;;;;;;11.49;100.00;100625.59;2078330;28;20053;-73
2023/03/26 03:40:09;;;;;;;10.05;6.65;;;;;;;11.51;100.00;100616.81;2078872;28;20103;-73
2023/03/26 03:41:33;;;;;;;9.70;6.30;;;;;;;11.52;100.00;100612.44;2070802;28;20565;-73
2023/03/26 03:42:57;;;;;;;10.85;6.03;;;;;;;11.55;100.00;100617.75;2075428;28;20469;-72
2023/03/26 03:44:30;;;;;;;9.20;5.85;;;;;;;11.57;100.00;100619.53;2087445;28;20468;-72
2023/03/26 03:45:53;;;;;;;8.80;5.75;;;;;;;11.60;100.00;100618.69;2072253;28;20049;-73
2023/03/26 03:47:47;;;;;;;10.43;6.10;;;;;;;11.62;100.00;100619.56;2071790;28;20049;-73
2023/03/26 03:49:14;;;;;;;12.77;6.28;;;;;;;11.65;100.00;100616.06;2075363;28;20513;-73
2023/03/26 03:50:35;;;;;;;9.80;5.88;;;;;;;11.66;100.00;100612.56;2077531;28;20061;-72
2023/03/26 03:52:15;;;;;;;8.35;4.80;;;;;;;11.67;100.00;100603.75;2072181;28;20050;-72
2023/03/26 03:53:39;;;;;;;9.40;5.13;;;;;;;11.68;100.00;100603.78;2081143;28;20149;-72
2023/03/26 03:55:01;;;;;;;8.10;5.40;;;;;;;11.71;100.00;100609.06;2070416;28;20046;-72
2023/03/26 03:56:49;;;;;;;7.72;4.75;;;;;;;11.72;100.00;100609.97;2073188;28;20550;-73
2023/03/26 03:58:13;;;;;;;9.23;5.00;;;;;;;11.72;100.00;100605.56;2080360;28;20083;-73
2023/03/26 03:59:38;;;;;;;7.53;5.00;;;;;;;11.73;100.00;100607.34;2070065;28;20088;-72
2023/03/26 04:01:03;;;;;;;7.57;5.20;;;;;;;11.73;100.00;100609.97;2068863;28;20042;-72
2023/03/26 04:02:58;;;;;;;8.15;5.55;;;;;;;11.75;100.00;100616.19;2071890;28;20082;-72
2023/03/26 04:04:23;;;;;;;9.60;5.35;;;;;;;11.76;100.00;100625.00;2068936;28;20217;-73
2023/03/26 04:05:53;;;;;;;7.18;4.90;;;;;;;11.73;100.00;100628.50;2076823;28;20042;-72
2023/03/26 04:07:18;;;;;;;7.80;4.40;;;;;;;11.67;100.00;100628.44;2069235;28;20490;-72
2023/03/26 04:08:59;;;;;;;8.02;5.20;;;;;;;11.61;100.00;100631.03;2088934;28;20127;-72
2023/03/26 04:10:21;;;;;;;7.80;4.70;;;;;;;11.62;100.00;100624.00;2081219;28;20052;-73
2023/03/26 04:12:02;;;;;;;8.75;5.00;;;;;;;11.61;100.00;100625.75;2080574;28;20053;-72
2023/03/26 04:14:03;;;;;;;6.38;4.28;;;;;;;11.58;100.00;100633.63;2073488;28;20045;-71
2023/03/26 04:15:44;;;;;;;5.88;4.28;;;;;;;11.56;100.00;100644.19;2079402;28;20497;-71
2023/03/26 04:17:05;;;;;;;6.10;3.85;;;;;;;11.58;100.00;100646.84;2064300;28;20039;-71
2023/03/26 04:18:31;;;;;;;6.03;3.85;;;;;;;11.64;100.00;100644.25;2073403;28;20057;-71
2023/03/26 04:20:05;;;;;;;8.05;4.88;;;;;;;11.69;100.00;100649.56;2070413;28;20056;-70
2023/03/26 04:21:29;;;;;;;8.93;4.82;;;;;;;11.68;100.00;100653.13;2077665;28;20056;-70
2023/03/26 04:22:51;;;;;;;8.10;5.10;;;;;;;11.64;100.00;100652.19;2077991;28;20088;-70
2023/03/26 04:24:15;;;;;;;7.72;4.90;;;;;;;11.60;100.00;100650.41;2069461;28;20054;-70
2023/03/26 04:26:09;;;;;;;7.40;4.70;;;;;;;11.50;100.00;100649.41;2076499;28;20137;-70
2023/03/26 04:28:00;;;;;;;6.72;4.60;;;;;;;11.43;100.00;100649.31;2072525;28;20438;-70
2023/03/26 04:29:49;;;;;;;7.65;4.28;;;;;;;11.39;100.00;100655.47;2079658;28;20049;-72
2023/03/26 04:31:22;;;;;;;8.02;4.82;;;;;;;11.40;100.00;100652.84;2070671;28;20050;-72
2023/03/26 04:32:44;;;;;;;7.05;4.53;;;;;;;11.39;100.00;100651.06;2068127;28;20445;-72
2023/03/26 04:34:13;;;;;;;9.30;4.30;;;;;;;11.41;100.00;100651.09;2065439;28;20060;-72
2023/03/26 04:35:44;;;;;;;8.30;5.10;;;;;;;11.46;100.00;100665.25;2078304;28;20450;-72
2023/03/26 04:37:17;;;;;;;7.95;5.28;;;;;;;11.51;100.00;100671.44;2069708;28;20049;-70
2023/03/26 04:38:50;;;;;;;7.90;5.63;;;;;;;11.50;100.00;100675.84;2062663;28;20502;-70
2023/03/26 04:40:19;;;;;;;8.52;5.15;;;;;;;11.51;100.00;100684.66;2076826;28;20429;-70
2023/03/26 04:42:18;;;;;;;10.20;5.45;;;;;;;11.44;100.00;100688.13;2055785;28;20062;-72
2023/03/26 04:44:04;;;;;;;7.55;4.70;;;;;;;11.39;100.00;100687.19;2054797;28;20102;-72
2023/03/26 04:45:33;;;;;;;8.32;4.80;;;;;;;11.36;100.00;100695.06;2069173;28;20077;-72
2023/03/26 04:46:57;;;;;;;8.18;4.95;;;;;;;11.35;100.00;100698.59;2091769;28;20125;-72
2023/03/26 04:48:27;;;;;;;6.88;4.75;;;;;;;11.32;100.00;100701.19;2073712;28;20046;-71
2023/03/26 04:49:48;;;;;;;6.68;4.75;;;;;;;11.31;100.00;100696.78;2067197;28;20526;-72
2023/03/26 04:51:16;;;;;;;6.57;4.63;;;;;;;11.32;100.00;100691.50;2067605;28;20140;-72
2023/03/26 04:52:40;;;;;;;6.53;4.43;;;;;;;11.34;100.00;100696.81;2068429;28;20553;-72
2023/03/26 04:54:26;;;;;;;6.70;3.85;;;;;;;11.37;100.00;100692.44;2079128;28;20143;-72
2023/03/26 04:55:56;;;;;;;6.00;3.83;;;;;;;11.44;100.00;100696.03;2071601;28;20038;-72
2023/03/26 04:57:45;;;;;;;5.57;3.67;;;;;;;11.48;100.00;100693.47;2072061;28;20058;-72
2023/03/26 04:59:25;;;;;;;11.60;7.95;;;;;;;11.57;100.00;100698.84;2072474;28;20038;-72
2023/03/26 05:00:48;;;;;;;6.60;4.40;;;;;;;11.68;100.00;100696.31;2075392;28;20045;-72
2023/03/26 05:02:14;;;;;;;5.75;4.05;;;;;;;11.75;100.00;100697.31;2065550;28;20096;-72
2023/03/26 05:03:55;;;;;;;5.63;4.07;;;;;;;11.77;100.00;100696.44;2071752;28;20034;-72
2023/03/26 05:05:17;;;;;;;6.78;5.95;;;;;;;11.77;100.00;100699.06;2069656;28;20046;-69
2023/03/26 05:06:41;;;;;;;7.53;6.40;;;;;;;11.78;100.00;100708.78;2069584;28;20084;-72
2023/03/26 05:08:14;;;;;;;5.35;4.28;;;;;;;11.87;100.00;100703.59;2070136;28;20541;-73
2023/03/26 05:09:35;;;;;;;5.68;3.78;;;;;;;12.03;100.00;100709.88;2077938;28;20505;-72
2023/03/26 05:11:10;;;;;;;4.97;3.10;;;;;;;12.27;100.00;100712.72;2071980;28;20398;-73
2023/03/26 05:12:33;;;;;;;4.53;2.85;;;;;;;12.51;100.00;100714.69;2067588;28;20137;-72
2023/03/26 05:14:00;;;;;;;4.43;2.97;;;;;;;12.75;100.00;100714.81;2073958;28;20061;-72
2023/03/26 05:15:23;;;;;;;7.00;3.45;;;;;;;12.98;100.00;100716.72;2069268;28;20594;-72
2023/03/26 05:17:13;;;;;;;6.25;3.47;;;;;;;13.22;100.00;100706.25;2079703;28;20699;-72
2023/03/26 05:18:36;;;;;;;5.05;2.97;;;;;;;13.43;100.00;100709.00;2072213;28;20470;-73
2023/03/26 05:19:59;;;;;;;4.13;3.13;;;;;;;13.62;100.00;100714.34;2068518;28;20141;-73
2023/03/26 05:21:21;;;;;;;5.15;3.03;;;;;;;13.80;100.00;100722.34;2072317;28;20037;-73
2023/03/26 05:22:43;;;;;;;4.05;2.60;;;;;;;13.90;100.00;100727.69;2077383;28;20053;-73
2023/03/26 05:24:19;;;;;;;5.15;3.35;;;;;;;13.97;100.00;100731.22;2079213;28;20042;-72
2023/03/26 05:25:40;;;;;;;4.30;2.80;;;;;;;14.08;100.00;100723.25;2064180;28;20064;-73
2023/03/26 05:27:15;;;;;;;4.32;2.95;;;;;;;14.23;100.00;100728.59;2068386;28;20140;-73
2023/03/26 05:28:37;;;;;;;5.13;2.92;;;;;;;14.34;100.00;100717.06;2083861;28;20053;-72
2023/03/26 05:30:21;;;;;;;4.90;3.50;;;;;;;14.44;100.00;100719.75;2079969;28;20104;-72
2023/03/26 05:31:49;;;;;;;4.97;3.08;;;;;;;14.53;100.00;100720.63;2062174;28;20050;-72
2023/03/26 05:33:10;;;;;;;3.80;2.92;;;;;;;14.69;100.00;100722.38;2067371;28;20136;-72
2023/03/26 05:34:42;;;;;;;2.95;2.30;;;;;;;14.88;100.00;100717.00;2078056;28;20045;-73
2023/03/26 05:36:08;;;;;;;4.53;2.85;;;;;;;15.07;100.00;100711.63;2077038;28;20060;-72
2023/03/26 05:37:31;;;;;;;4.10;2.65;;;;;;;15.26;100.00;100711.56;2061830;28;20081;-73
2023/03/26 05:39:00;;;;;;;8.45;2.60;;;;;;;15.44;100.00;100717.66;2070088;28;20077;-73
2023/03/26 05:40:59;;;;;;;5.75;2.80;;;;;;;15.65;100.00;100721.16;2060972;28;21256;-72
2023/03/26 05:42:22;;;;;;;4.68;2.63;;;;;;;15.79;100.00;100717.50;2052950;28;20050;-73
2023/03/26 05:43:57;;;;;;;4.50;2.70;;;;;;;15.94;100.00;100721.84;2094739;28;20044;-72
2023/03/26 05:45:22;;;;;;;3.13;2.17;;;;;;;16.08;100.00;100717.28;2074234;28;20084;-72
2023/03/26 05:46:47;;;;;;;4.63;2.55;;;;;;;16.23;100.00;100721.63;2061553;28;20054;-73
2023/03/26 05:48:16;;;;;;;4.78;2.20;;;;;;;16.37;100.00;100717.06;2074314;28;20508;-72
2023/03/26 05:49:38;;;;;;;3.65;2.25;;;;;;;16.52;100.00;100718.72;2084945;28;20061;-73
2023/03/26 05:51:01;;;;;;;4.78;2.47;;;;;;;16.64;100.00;100713.28;2070354;28;20042;-72
2023/03/26 05:52:25;;;;;;;4.07;2.40;;;;;;;16.76;100.00;100722.94;2069654;28;20029;-73
2023/03/26 05:54:11;;;;;;;5.85;2.08;;;;;;;16.88;100.00;100714.81;2065987;28;20050;-73
2023/03/26 05:55:56;;;;;;;3.50;2.20;;;;;;;17.02;100.00;100720.88;2088128;28;20084;-73
2023/03/26 05:57:40;;;;;;;3.45;2.00;;;;;;;17.17;100.00;100714.47;2078031;28;20063;-73
2023/03/26 05:59:32;;;;;;;2.67;1.98;;;;;;;17.32;100.00;100720.53;2080073;28;20171;-73
2023/03/26 06:01:15;;;;;;;3.83;2.22;;;;;;;17.45;100.00;100723.91;2078488;28;20046;-73
2023/03/26 06:02:59;;;;;;;3.85;2.25;;;;;;;17.58;100.00;100727.31;2071658;28;20145;-73
2023/03/26 06:04:41;;;;;;;5.70;3.20;;;;;;;17.70;100.00;100727.16;2082868;28;20037;-73
2023/03/26 06:06:28;;;;;;;3.63;2.28;;;;;;;17.84;100.00;100731.41;2079993;28;20042;-73
2023/03/26 06:07:53;;;;;;;4.20;2.40;;;;;;;17.96;100.00;100724.09;2069245;28;20525;-70
2023/03/26 06:09:17;;;;;;;5.03;3.00;;;;;;;18.07;100.00;100720.34;2066359;28;20140;-70
2023/03/26 06:10:39;;;;;;;3.30;2.40;;;;;;;18.21;100.00;100720.13;2067185;28;20526;-71
2023/03/26 06:12:01;;;;;;;5.72;2.55;;;;;;;18.30;100.00;100720.88;2074153;28;20053;-70
2023/03/26 06:13:26;;;;;;;4.55;2.80;;;;;;;18.43;100.00;100718.00;2068580;28;20128;-71
2023/03/26 06:14:49;;;;;;;3.92;2.67;;;;;;;18.53;100.00;100722.25;2072629;28;20045;-71
2023/03/26 06:16:19;;;;;;;5.13;2.70;;;;;;;18.68;100.00;100720.25;2070212;28;20498;-71
2023/03/26 06:17:50;;;;;;;5.47;2.70;;;;;;;18.87;100.00;100723.44;2076152;28;20057;-71
2023/03/26 06:19:30;;;;;;;5.57;3.10;;;;;;;19.03;100.00;100730.25;2070625;28;20041;-72
2023/03/26 06:20:57;;;;;;;4.80;2.92;;;;;;;19.16;100.00;100730.91;2077792;28;20505;-71
2023/03/26 06:22:32;;;;;;;4.22;2.67;;;;;;;19.32;100.00;100736.81;2063318;28;20072;-71
2023/03/26 06:24:15;;;;;;;5.43;2.83;;;;;;;19.43;100.00;100729.44;2079081;28;20478;-72
2023/03/26 06:26:13;;;;;;;6.05;2.90;;;;;;;19.55;100.00;100731.91;2065402;28;20081;-71
2023/03/26 06:27:57;;;;;;;4.35;2.58;;;;;;;19.80;100.00;100733.13;2060563;28;20046;-71
2023/03/26 06:29:39;;;;;;;4.63;2.63;;;;;;;20.05;96.94;100738.78;2088753;28;20678;-72
2023/03/26 06:31:08;;;;;;;6.07;2.58;;;;;;;20.28;93.07;100743.63;2078428;28;21945;-72
2023/03/26 06:32:38;;;;;;;4.72;2.70;;;;;;;20.50;90.13;100749.34;2072344;28;20112;-71
2023/03/26 06:34:03;;;;;;;4.18;2.65;;;;;;;20.68;91.41;100752.44;2072481;28;20104;-72
2023/03/26 06:35:26;;;;;;;7.40;3.92;;;;;;;20.85;91.52;100745.75;2072807;28;20620;-72
2023/03/26 06:36:51;;;;;;;5.50;3.42;;;;;;;21.03;89.70;100750.59;2064488;28;20054;-72
2023/03/26 06:38:15;;;;;;;9.18;5.05;;;;;;;21.17;85.59;100753.84;2069916;28;20133;-72
2023/03/26 06:39:39;;;;;;;8.35;5.13;;;;;;;21.32;84.43;100753.41;2066040;28;20058;-72
2023/03/26 06:41:10;;;;;;;;;;;;;;;21.35;85.68;100750.63;2080050;28;20408;-72
2023/03/26 06:42:54;;;;;;;14.88;7.50;;;;;;;21.53;88.30;100749.19;2090491;28;19920;-72
2023/03/26 06:44:37;;;;;;;11.35;5.97;;;;;;;21.68;84.69;100743.38;2066535;28;20058;-71
2023/03/26 06:46:20;;;;;;;15.40;9.40;;;;;;;21.81;77.96;100734.00;2089948;28;20045;-71
2023/03/26 06:48:00;;;;;;;28.48;16.42;;;;;;;21.94;73.68;100739.88;2083835;28;20052;-72
2023/03/26 06:49:41;;;;;;;26.95;14.77;;;;;;;22.01;72.01;100738.78;2072758;28;20064;-71